createdAt,value
2019-04-14T00:01:30.734Z,24.75
2019-04-14T00:04:04.888Z,24.43
2019-04-14T00:06:35.428Z,24.55
2019-04-14T00:09:05.392Z,26.48
2019-04-14T00:11:36.481Z,21.75
2019-04-14T00:14:05.351Z,26.05
2019-04-14T00:16:33.868Z,24.98
2019-04-14T00:19:02.338Z,24.47
2019-04-14T00:21:30.789Z,24.70
2019-04-14T00:23:59.157Z,23.85
2019-04-14T00:26:31.663Z,23.98
2019-04-14T00:29:00.245Z,24.87
2019-04-14T00:31:28.774Z,22.40
2019-04-14T00:33:58.810Z,23.98
2019-04-14T00:36:34.941Z,26.57
2019-04-14T00:39:05.336Z,29.67
2019-04-14T00:41:43.953Z,30.32
2019-04-14T00:44:07.819Z,31.25
2019-04-14T00:46:56.232Z,30.48
2019-04-14T00:49:24.759Z,31.77
2019-04-14T00:51:53.203Z,35.20
2019-04-14T00:54:21.797Z,34.27
2019-04-14T00:56:50.318Z,37.98
2019-04-14T00:59:18.708Z,41.05
2019-04-14T01:01:48.292Z,38.13
2019-04-14T01:04:16.918Z,39.08
2019-04-14T01:06:45.323Z,31.40
2019-04-14T01:09:15.181Z,23.40
2019-04-14T01:11:44.367Z,17.75
2019-04-14T01:14:12.945Z,17.07
2019-04-14T01:16:41.460Z,15.72
2019-04-14T01:19:11.192Z,16.50
2019-04-14T01:21:39.674Z,15.15
2019-04-14T01:24:08.085Z,13.43
2019-04-14T01:26:37.720Z,13.93
2019-04-14T01:29:06.184Z,12.18
2019-04-14T01:31:34.550Z,13.28
2019-04-14T01:34:04.059Z,13.22
2019-04-14T01:36:34.447Z,13.00
2019-04-14T01:39:03.034Z,12.58
2019-04-14T01:41:32.430Z,11.48
2019-04-14T01:44:00.973Z,13.03
2019-04-14T01:46:31.473Z,11.68
2019-04-14T01:49:00.632Z,11.43
2019-04-14T01:51:37.417Z,10.58
2019-04-14T01:54:19.506Z,10.20
2019-04-14T01:56:49.542Z,9.43
2019-04-14T01:59:18.305Z,9.55
2019-04-14T02:01:52.067Z,10.60
2019-04-14T02:04:20.720Z,10.00
2019-04-14T02:06:50.479Z,10.13
2019-04-14T02:09:18.985Z,9.60
2019-04-14T02:11:48.726Z,9.13
2019-04-14T02:14:17.230Z,8.58
2019-04-14T02:16:52.240Z,9.38
2019-04-14T02:19:15.850Z,9.05
2019-04-14T02:21:45.503Z,7.58
2019-04-14T02:24:14.025Z,7.60
2019-04-14T02:26:43.703Z,7.00
2019-04-14T02:29:12.298Z,6.30
2019-04-14T02:32:13.421Z,6.65
2019-04-14T02:34:39.128Z,5.97
2019-04-14T02:37:10.715Z,5.97
2019-04-14T02:39:45.936Z,6.30
2019-04-14T02:42:17.927Z,7.17
2019-04-14T02:44:38.032Z,6.53
2019-04-14T02:47:27.752Z,6.55
2019-04-14T02:49:44.076Z,6.12
2019-04-14T02:52:04.869Z,5.42
2019-04-14T02:54:46.487Z,6.87
2019-04-14T02:57:13.856Z,6.05
2019-04-14T02:59:43.106Z,6.87
2019-04-14T03:02:26.320Z,5.97
2019-04-14T03:04:39.268Z,5.53
2019-04-14T03:12:11.434Z,6.72
2019-04-14T03:14:40.401Z,7.40
2019-04-14T03:17:26.278Z,6.97
2019-04-14T03:20:06.978Z,6.95
2019-04-14T03:25:11.577Z,8.10
2019-04-14T03:27:54.793Z,7.97
2019-04-14T03:33:17.480Z,9.18
2019-04-14T03:37:59.204Z,9.95
2019-04-14T03:40:35.647Z,9.75
2019-04-14T03:43:17.069Z,9.40
2019-04-14T03:48:34.239Z,8.90
2019-04-14T03:50:28.227Z,8.25
2019-04-14T03:53:12.006Z,8.48
2019-04-14T03:55:21.581Z,8.45
2019-04-14T03:57:39.024Z,7.90
2019-04-14T04:00:07.696Z,7.53
2019-04-14T04:02:36.118Z,7.72
2019-04-14T04:05:06.457Z,8.20
2019-04-14T04:07:34.949Z,6.60
2019-04-14T04:10:05.530Z,7.53
2019-04-14T04:12:33.940Z,6.65
2019-04-14T04:15:02.404Z,7.42
2019-04-14T04:17:32.396Z,7.30
2019-04-14T04:20:06.652Z,7.72
2019-04-14T04:22:45.942Z,7.33
2019-04-14T04:25:16.203Z,7.50
2019-04-14T04:28:05.874Z,7.87
2019-04-14T04:30:36.296Z,8.13
2019-04-14T04:33:13.246Z,8.18
2019-04-14T04:35:52.282Z,9.68
2019-04-14T04:38:29.071Z,9.33
2019-04-14T04:40:57.539Z,10.05
2019-04-14T04:43:25.938Z,9.60
2019-04-14T04:45:54.394Z,9.98
2019-04-14T04:48:24.091Z,10.30
2019-04-14T04:50:52.736Z,11.05
2019-04-14T04:53:22.346Z,11.57
2019-04-14T04:55:50.813Z,11.63
2019-04-14T04:58:19.574Z,12.28
2019-04-14T05:00:51.004Z,13.05
2019-04-14T05:03:19.002Z,13.80
2019-04-14T05:06:07.352Z,13.25
2019-04-14T05:08:37.606Z,13.35
2019-04-14T05:11:20.594Z,14.53
2019-04-14T05:13:51.209Z,16.05
2019-04-14T05:16:19.964Z,16.82
2019-04-14T05:18:48.695Z,16.00
2019-04-14T05:21:17.126Z,19.42
2019-04-14T05:23:45.560Z,18.67
2019-04-14T05:26:13.913Z,22.10
2019-04-14T05:28:42.347Z,21.52
2019-04-14T05:31:12.055Z,21.57
2019-04-14T05:33:40.722Z,22.17
2019-04-14T05:36:09.187Z,21.70
2019-04-14T05:38:38.533Z,22.55
2019-04-14T05:41:07.087Z,22.62
2019-04-14T05:43:43.821Z,24.70
2019-04-14T05:46:05.628Z,24.92
2019-04-14T05:48:33.981Z,24.55
2019-04-14T05:51:02.481Z,24.20
2019-04-14T05:53:30.876Z,25.35
2019-04-14T05:55:59.379Z,25.17
2019-04-14T05:58:27.897Z,24.00
2019-04-14T06:00:56.410Z,23.65
2019-04-14T06:03:25.689Z,23.65
2019-04-14T06:05:54.409Z,24.20
2019-04-14T06:08:22.789Z,26.20
2019-04-14T06:10:51.279Z,25.20
2019-04-14T06:13:20.689Z,26.75
2019-04-14T06:15:49.158Z,27.50
2019-04-14T06:18:17.622Z,28.10
2019-04-14T06:20:46.071Z,27.90
2019-04-14T06:23:14.499Z,30.27
2019-04-14T06:25:42.924Z,26.23
2019-04-14T06:28:11.376Z,28.67
2019-04-14T06:30:41.397Z,27.00
2019-04-14T06:33:17.595Z,29.72
2019-04-14T06:36:03.820Z,24.00
2019-04-14T06:38:33.925Z,26.15
2019-04-14T06:41:06.844Z,29.45
2019-04-14T06:43:35.258Z,27.07
2019-04-14T06:46:03.648Z,28.47
2019-04-14T06:48:32.080Z,27.45
2019-04-14T06:51:00.566Z,26.23
2019-04-14T06:53:29.090Z,25.20
2019-04-14T06:55:57.480Z,25.48
2019-04-14T06:58:25.835Z,26.20
2019-04-14T07:00:54.231Z,28.98
2019-04-14T07:03:22.592Z,25.37
2019-04-14T07:05:50.952Z,25.35
2019-04-14T07:08:19.421Z,26.57
2019-04-14T07:10:47.912Z,25.80
2019-04-14T07:13:19.301Z,25.43
2019-04-14T07:15:46.426Z,27.90
2019-04-14T07:18:14.812Z,27.32
2019-04-14T07:20:43.252Z,26.90
2019-04-14T07:23:11.789Z,26.52
2019-04-14T07:25:40.161Z,27.87
2019-04-14T07:28:08.659Z,25.92
2019-04-14T07:30:44.236Z,27.45
2019-04-14T07:33:20.313Z,26.77
2019-04-14T07:35:53.477Z,26.65
2019-04-14T07:38:23.500Z,25.68
2019-04-14T07:41:08.592Z,26.40
2019-04-14T07:43:38.632Z,26.75
2019-04-14T07:46:14.620Z,25.35
2019-04-14T07:48:44.653Z,25.25
2019-04-14T07:51:26.622Z,24.55
2019-04-14T07:54:02.614Z,28.67
2019-04-14T07:56:47.881Z,24.63
2019-04-14T07:59:17.884Z,26.73
2019-04-14T08:02:02.969Z,28.38
2019-04-14T08:04:32.940Z,27.65
2019-04-14T08:07:01.304Z,27.98
2019-04-14T08:09:29.800Z,24.77
2019-04-14T08:11:58.233Z,25.57
2019-04-14T08:14:26.735Z,27.37
2019-04-14T08:16:55.113Z,28.40
2019-04-14T08:19:23.675Z,30.65
2019-04-14T08:21:52.123Z,26.42
2019-04-14T08:24:20.708Z,26.65
2019-04-14T08:26:49.165Z,28.47
2019-04-14T08:29:17.654Z,29.30
2019-04-14T08:31:46.090Z,28.23
2019-04-14T08:34:14.649Z,29.02
2019-04-14T08:36:43.077Z,25.57
2019-04-14T08:39:11.446Z,26.55
2019-04-14T08:41:41.576Z,24.47
2019-04-14T08:44:11.620Z,29.07
2019-04-14T08:46:44.116Z,27.13
2019-04-14T08:49:30.566Z,27.27
2019-04-14T08:54:44.360Z,28.87
2019-04-14T08:57:30.500Z,27.95
2019-04-14T09:00:00.606Z,27.17
2019-04-14T09:02:36.815Z,28.75
2019-04-14T09:05:24.366Z,27.50
2019-04-14T09:07:57.204Z,27.35
2019-04-14T09:10:27.260Z,28.35
2019-04-14T09:12:59.632Z,27.17
2019-04-14T09:15:28.068Z,24.18
2019-04-14T09:17:56.478Z,28.17
2019-04-14T09:20:24.974Z,25.45
2019-04-14T09:22:53.422Z,26.90
2019-04-14T09:25:21.895Z,27.15
2019-04-14T09:27:50.386Z,25.37
2019-04-14T09:30:19.183Z,28.05
2019-04-14T09:32:47.646Z,23.07
2019-04-14T09:35:35.477Z,23.90
2019-04-14T09:38:03.977Z,26.10
2019-04-14T09:40:32.404Z,26.23
2019-04-14T09:43:00.880Z,21.37
2019-04-14T09:45:29.365Z,23.05
2019-04-14T09:47:57.783Z,22.17
2019-04-14T09:50:26.244Z,22.17
2019-04-14T09:52:54.653Z,21.10
2019-04-14T09:55:23.574Z,21.62
2019-04-14T09:57:52.138Z,21.68
2019-04-14T10:00:22.169Z,21.75
2019-04-14T10:02:50.533Z,22.32
2019-04-14T10:05:18.981Z,21.62
2019-04-14T10:07:47.440Z,21.23
2019-04-14T10:10:15.984Z,22.65
2019-04-14T10:12:44.471Z,23.92
2019-04-14T10:15:12.920Z,22.67
2019-04-14T10:17:41.444Z,28.23
2019-04-14T10:20:09.911Z,29.10
2019-04-14T10:22:38.382Z,30.30
2019-04-14T10:25:06.848Z,30.62
2019-04-14T10:27:35.302Z,31.87
2019-04-14T10:30:06.199Z,29.70
2019-04-14T10:32:34.686Z,29.63
2019-04-14T10:35:03.975Z,29.65
2019-04-14T10:37:32.468Z,29.42
2019-04-14T10:40:00.982Z,26.65
2019-04-14T10:42:29.521Z,27.50
2019-04-14T10:44:57.958Z,29.75
2019-04-14T10:47:26.372Z,29.60
2019-04-14T10:49:54.808Z,29.48
2019-04-14T10:52:23.283Z,27.50
2019-04-14T10:54:51.830Z,25.82
2019-04-14T10:57:20.264Z,27.80
2019-04-14T10:59:48.709Z,29.52
2019-04-14T11:02:17.183Z,28.95
2019-04-14T11:04:45.640Z,26.55
2019-04-14T11:07:27.685Z,27.85
2019-04-14T11:09:56.214Z,26.68
2019-04-14T11:12:24.574Z,27.13
2019-04-14T11:14:53.008Z,26.57
2019-04-14T11:17:21.441Z,24.82
2019-04-14T11:19:49.874Z,25.35
2019-04-14T11:22:18.201Z,25.77
2019-04-14T11:24:46.670Z,23.02
2019-04-14T11:27:15.203Z,24.18
2019-04-14T11:29:43.637Z,20.40
2019-04-14T11:32:30.234Z,20.52
2019-04-14T11:35:18.481Z,21.82
2019-04-14T11:37:48.582Z,21.62
2019-04-14T11:40:27.976Z,22.80
2019-04-14T11:42:56.512Z,22.22
2019-04-14T11:45:24.883Z,21.23
2019-04-14T11:47:53.304Z,22.52
2019-04-14T11:50:21.815Z,19.98
2019-04-14T11:52:50.248Z,19.75
2019-04-14T11:55:18.789Z,18.30
2019-04-14T11:57:47.228Z,20.10
2019-04-14T12:00:26.655Z,19.57
2019-04-14T12:02:59.640Z,21.00
2019-04-14T12:05:32.444Z,21.17
2019-04-14T12:08:05.090Z,19.00
2019-04-14T12:10:33.489Z,19.15
2019-04-14T12:13:02.991Z,18.27
2019-04-14T12:15:34.326Z,19.27
2019-04-14T12:18:01.626Z,17.17
2019-04-14T12:20:30.160Z,19.73
2019-04-14T12:22:58.596Z,20.27
2019-04-14T12:25:26.988Z,19.57
2019-04-14T12:27:55.824Z,17.65
2019-04-14T12:30:24.471Z,17.62
2019-04-14T12:32:53.059Z,18.87
2019-04-14T12:35:21.550Z,18.17
2019-04-14T12:37:50.041Z,17.25
2019-04-14T12:40:18.565Z,17.27
2019-04-14T12:43:04.919Z,18.70
2019-04-14T12:48:20.914Z,15.28
2019-04-14T12:50:50.916Z,16.80
2019-04-14T12:53:19.281Z,15.93
2019-04-14T12:55:47.746Z,15.20
2019-04-14T12:58:17.753Z,14.47
2019-04-14T13:00:50.841Z,14.95
2019-04-14T13:03:20.075Z,14.80
2019-04-14T13:05:48.543Z,14.93
2019-04-14T13:08:16.978Z,14.80
2019-04-14T13:10:45.496Z,14.47
2019-04-14T13:13:13.826Z,14.40
2019-04-14T13:15:42.322Z,14.35
2019-04-14T13:18:10.850Z,13.98
2019-04-14T13:20:39.223Z,14.30
2019-04-14T13:23:07.728Z,16.40
2019-04-14T13:25:36.294Z,14.45
2019-04-14T13:28:04.761Z,14.98
2019-04-14T13:30:37.526Z,15.10
2019-04-14T13:33:05.878Z,15.58
2019-04-14T13:35:34.343Z,15.63
2019-04-14T13:38:02.815Z,15.43
2019-04-14T13:40:31.206Z,15.25
2019-04-14T13:42:59.722Z,15.35
2019-04-14T13:45:28.128Z,14.47
2019-04-14T13:47:56.540Z,13.22
2019-04-14T13:50:26.022Z,15.45
2019-04-14T13:52:54.493Z,16.30
2019-04-14T13:55:22.893Z,17.20
2019-04-14T13:57:51.403Z,17.00
2019-04-14T14:00:19.916Z,16.95
2019-04-14T14:02:48.293Z,18.35
2019-04-14T14:05:16.788Z,18.52
2019-04-14T14:07:45.194Z,19.77
2019-04-14T14:10:13.618Z,18.60
2019-04-14T14:12:43.723Z,18.62
2019-04-14T14:15:22.531Z,18.10
2019-04-14T14:17:52.603Z,20.80
2019-04-14T14:20:28.226Z,20.48
2019-04-14T14:23:02.331Z,20.20
2019-04-14T14:25:41.099Z,21.77
2019-04-14T14:28:09.675Z,20.35
2019-04-14T14:30:38.131Z,20.45
2019-04-14T14:33:06.491Z,22.22
2019-04-14T14:35:34.888Z,20.70
2019-04-14T14:38:03.383Z,23.40
2019-04-14T14:40:31.740Z,20.23
2019-04-14T14:43:00.205Z,23.42
2019-04-14T14:45:30.167Z,23.98
2019-04-14T14:48:03.559Z,24.32
2019-04-14T14:50:51.897Z,22.17
2019-04-14T14:53:22.241Z,24.75
2019-04-14T14:55:50.566Z,24.43
2019-04-14T14:58:19.030Z,23.50
2019-04-14T15:00:47.496Z,24.05
2019-04-14T15:03:15.987Z,23.85
2019-04-14T15:05:44.520Z,23.92
2019-04-14T15:08:13.582Z,23.47
2019-04-14T15:10:42.045Z,21.55
2019-04-14T15:13:10.540Z,21.37
2019-04-14T15:15:38.977Z,22.48
2019-04-14T15:18:07.338Z,21.05
2019-04-14T15:20:35.778Z,20.17
2019-04-14T15:23:04.153Z,18.50
2019-04-14T15:25:32.480Z,17.45
2019-04-14T15:28:00.968Z,18.25
2019-04-14T15:30:29.342Z,17.30
2019-04-14T15:32:57.694Z,18.25
2019-04-14T15:35:26.236Z,18.67
2019-04-14T15:37:54.630Z,18.35
2019-04-14T15:40:23.062Z,17.42
2019-04-14T15:42:51.627Z,17.82
2019-04-14T15:45:20.067Z,17.87
2019-04-14T15:47:48.557Z,16.87
2019-04-14T15:50:17.070Z,18.40
2019-04-14T15:52:45.489Z,18.73
2019-04-14T15:55:14.885Z,18.17
2019-04-14T15:57:44.954Z,18.12
2019-04-14T16:00:31.788Z,18.52
2019-04-14T16:03:01.859Z,17.95
2019-04-14T16:05:34.638Z,17.12
2019-04-14T16:08:07.638Z,15.63
2019-04-14T16:10:43.959Z,15.15
2019-04-14T16:13:14.124Z,15.58
2019-04-14T16:15:50.145Z,15.30
2019-04-14T16:18:36.522Z,14.40
2019-04-14T16:23:32.784Z,14.47
2019-04-14T16:26:18.073Z,14.45
2019-04-14T16:28:48.010Z,14.53
2019-04-14T16:31:33.407Z,14.03
2019-04-14T16:34:03.406Z,14.78
2019-04-14T16:36:31.906Z,15.43
2019-04-14T16:39:00.401Z,14.78
2019-04-14T16:41:28.781Z,15.93
2019-04-14T16:43:57.298Z,15.08
2019-04-14T16:46:25.843Z,15.45
2019-04-14T16:48:54.343Z,14.63
2019-04-14T16:51:30.419Z,14.18
2019-04-14T16:54:03.182Z,13.83
2019-04-14T16:56:32.180Z,16.25
2019-04-14T16:59:02.290Z,15.03
2019-04-14T17:01:35.293Z,18.25
2019-04-14T17:04:03.727Z,15.68
2019-04-14T17:06:32.157Z,15.85
2019-04-14T17:09:00.681Z,16.30
2019-04-14T17:11:29.122Z,16.12
2019-04-14T17:13:59.170Z,15.72
2019-04-14T17:16:47.347Z,16.52
2019-04-14T17:19:17.407Z,15.60
2019-04-14T17:21:47.445Z,16.42
2019-04-14T17:24:18.635Z,18.12
2019-04-14T17:26:48.675Z,17.37
2019-04-14T17:29:25.711Z,16.97
2019-04-14T17:32:09.317Z,17.90
2019-04-14T17:34:39.424Z,17.07
2019-04-14T17:37:21.044Z,18.27
2019-04-14T17:39:55.772Z,18.75
2019-04-14T17:42:38.108Z,17.35
2019-04-14T17:45:15.191Z,19.17
2019-04-14T17:47:48.522Z,18.25
2019-04-14T17:50:40.824Z,16.45
2019-04-14T17:53:17.932Z,17.27
2019-04-14T17:56:05.570Z,15.83
2019-04-14T17:58:38.346Z,17.35
2019-04-14T18:01:08.499Z,17.30
2019-04-14T18:03:38.488Z,18.62
2019-04-14T18:06:26.634Z,16.02
2019-04-14T18:09:12.928Z,16.97
2019-04-14T18:11:43.143Z,18.42
2019-04-14T18:14:15.685Z,17.92
2019-04-14T18:16:57.702Z,17.67
2019-04-14T18:19:27.743Z,17.62
2019-04-14T18:21:56.239Z,17.07
2019-04-14T18:24:24.800Z,17.77
2019-04-14T18:26:53.149Z,17.15
2019-04-14T18:29:25.984Z,16.32
2019-04-14T18:31:56.087Z,18.50
2019-04-14T18:34:28.821Z,18.55
2019-04-14T18:36:58.974Z,23.05
2019-04-14T18:39:38.275Z,20.27
2019-04-14T18:42:24.573Z,16.70
2019-04-14T18:44:54.568Z,20.68
2019-04-14T18:47:36.875Z,19.82
2019-04-14T18:50:13.117Z,17.98
2019-04-14T18:52:56.303Z,18.80
2019-04-14T18:55:29.167Z,16.85
2019-04-14T18:58:15.293Z,20.10
2019-04-14T19:01:00.713Z,18.48
2019-04-14T19:03:29.169Z,18.73
2019-04-14T19:05:57.746Z,18.75
2019-04-14T19:08:26.167Z,19.05
2019-04-14T19:11:08.435Z,19.40
2019-04-14T19:13:38.361Z,18.02
2019-04-14T19:16:17.565Z,17.48
2019-04-14T19:19:02.740Z,18.40
2019-04-14T19:21:32.402Z,17.90
2019-04-14T19:24:00.901Z,18.82
2019-04-14T19:26:29.401Z,19.98
2019-04-14T19:28:57.837Z,17.12
2019-04-14T19:31:26.157Z,18.98
2019-04-14T19:33:54.573Z,18.50
2019-04-14T19:36:24.128Z,20.30
2019-04-14T19:38:52.554Z,19.27
2019-04-14T19:41:21.010Z,18.37
2019-04-14T19:43:49.479Z,17.87
2019-04-14T19:46:17.876Z,17.52
2019-04-14T19:48:46.652Z,17.57
2019-04-14T19:51:15.021Z,18.10
2019-04-14T19:53:43.576Z,18.30
2019-04-14T19:56:12.062Z,18.37
2019-04-14T19:58:41.449Z,18.80
2019-04-14T20:01:09.899Z,18.55
2019-04-14T20:03:38.471Z,17.87
2019-04-14T20:06:06.904Z,18.50
2019-04-14T20:08:35.352Z,17.87
2019-04-14T20:11:03.734Z,16.95
2019-04-14T20:13:33.766Z,18.35
2019-04-14T20:16:06.467Z,19.42
2019-04-14T20:18:36.581Z,18.62
2019-04-14T20:21:25.007Z,17.98
2019-04-14T20:23:57.517Z,16.25
2019-04-14T20:26:33.365Z,19.23
2019-04-14T20:29:18.445Z,19.75
2019-04-14T20:32:06.501Z,17.70
2019-04-14T20:34:35.115Z,19.55
2019-04-14T20:37:03.658Z,18.55
2019-04-14T20:39:32.638Z,17.70
2019-04-14T20:42:01.142Z,17.85
2019-04-14T20:44:29.546Z,18.50
2019-04-14T20:46:58.005Z,18.32
2019-04-14T20:49:26.370Z,19.07
2019-04-14T20:51:54.847Z,18.40
2019-04-14T20:54:23.252Z,17.75
2019-04-14T20:56:51.688Z,18.60
2019-04-14T20:59:20.330Z,17.90
2019-04-14T21:01:50.375Z,17.90
2019-04-14T21:04:26.418Z,16.45
2019-04-14T21:07:02.692Z,16.15
2019-04-14T21:09:35.712Z,16.30
2019-04-14T21:12:05.819Z,16.30
2019-04-14T21:14:51.040Z,17.10
2019-04-14T21:17:27.021Z,16.17
2019-04-14T21:20:12.231Z,16.40
2019-04-14T21:22:48.083Z,16.67
2019-04-14T21:25:34.312Z,16.67
2019-04-14T21:28:13.677Z,16.12
2019-04-14T21:30:52.988Z,15.72
2019-04-14T21:33:22.994Z,16.07
2019-04-14T21:35:53.075Z,15.75
2019-04-14T21:38:23.118Z,15.25
2019-04-14T21:40:53.147Z,16.57
2019-04-14T21:43:21.574Z,15.10
2019-04-14T21:45:49.991Z,15.65
2019-04-14T21:48:18.416Z,15.45
2019-04-14T21:50:46.766Z,14.75
2019-04-14T21:53:15.168Z,13.55
2019-04-14T21:55:43.647Z,14.87
2019-04-14T21:58:13.667Z,14.93
2019-04-14T22:01:11.604Z,13.50
2019-04-14T22:03:56.732Z,14.13
2019-04-14T22:06:26.851Z,14.05
2019-04-14T22:08:55.876Z,13.55
2019-04-14T22:11:30.362Z,14.50
2019-04-14T22:13:58.781Z,13.55
2019-04-14T22:16:27.851Z,13.62
2019-04-14T22:18:56.318Z,12.40
2019-04-14T22:21:24.758Z,13.62
2019-04-14T22:24:01.404Z,13.20
2019-04-14T22:26:42.820Z,12.98
2019-04-14T22:29:11.244Z,13.35
2019-04-14T22:31:39.686Z,13.85
2019-04-14T22:34:08.137Z,13.75
2019-04-14T22:36:36.440Z,12.75
2019-04-14T22:39:07.480Z,14.47
2019-04-14T22:41:36.997Z,13.95
2019-04-14T22:44:05.452Z,13.58
2019-04-14T22:46:33.966Z,13.90
2019-04-14T22:49:02.462Z,14.73
2019-04-14T22:51:30.880Z,13.15
2019-04-14T22:53:59.264Z,14.18
2019-04-14T22:56:38.632Z,13.90
2019-04-14T22:58:57.795Z,14.70
2019-04-14T23:01:27.879Z,14.20
2019-04-14T23:04:00.973Z,13.35
2019-04-14T23:06:34.003Z,18.73
2019-04-14T23:09:16.156Z,16.52
2019-04-14T23:11:46.171Z,22.13
2019-04-14T23:14:22.209Z,18.75
2019-04-14T23:16:58.223Z,16.73
2019-04-14T23:19:28.256Z,15.68
2019-04-14T23:21:58.325Z,17.45
2019-04-14T23:24:28.340Z,18.32
2019-04-14T23:26:56.701Z,15.40
2019-04-14T23:29:25.242Z,20.20
2019-04-14T23:31:53.622Z,17.30
2019-04-14T23:34:22.082Z,15.30
2019-04-14T23:36:50.613Z,15.40
2019-04-14T23:39:19.157Z,15.40
2019-04-14T23:41:47.529Z,17.57
2019-04-14T23:44:15.857Z,17.17
2019-04-14T23:46:44.334Z,18.23
2019-04-14T23:49:12.840Z,18.00
2019-04-14T23:51:41.348Z,17.02
2019-04-14T23:54:09.784Z,18.40
2019-04-14T23:56:38.284Z,17.75
2019-04-14T23:59:06.724Z,19.27
